Time;durP1;ratioP1;P1;durP2;ratioP2;P2;SDS_P1;SDS_P2;PMS_P1;PMS_P2;Temp;Humidity;BMP_temperature;BMP_pressure;BME280_temperature;BME280_humidity;BME280_pressure;Samples;Min_cycle;Max_cycle;Signal;HPM_P1;HPM_P2
2023/02/18 00:01:29;;;;;;;4.90;2.75;;;11.70;99.90;;;;;;5035464;28;20049;-81
2023/02/18 00:03:57;;;;;;;4.07;3.17;;;11.70;99.90;;;;;;5037016;28;20110;-81
2023/02/18 00:06:30;;;;;;;5.95;3.10;;;11.80;99.90;;;;;;5038257;28;20047;-80
2023/02/18 00:09:00;;;;;;;3.40;2.40;;;11.80;99.90;;;;;;5024510;28;20046;-81
2023/02/18 00:11:29;;;;;;;3.38;2.85;;;11.80;99.90;;;;;;5025755;28;20460;-81
2023/02/18 00:14:00;;;;;;;4.05;2.85;;;11.80;99.90;;;;;;5030071;28;20085;-80
2023/02/18 00:16:27;;;;;;;;;;;11.80;99.90;;;;;;5036072;28;20052;-81
2023/02/18 00:18:58;;;;;;;5.18;2.25;;;11.80;99.90;;;;;;5036516;28;19921;-81
2023/02/18 00:21:25;;;;;;;4.53;2.70;;;11.80;99.90;;;;;;5034069;28;20054;-81
2023/02/18 00:23:52;;;;;;;5.22;2.60;;;11.80;99.90;;;;;;5020954;28;20544;-81
2023/02/18 00:26:19;;;;;;;5.47;2.92;;;11.80;99.90;;;;;;5027430;28;20124;-81
2023/02/18 00:28:47;;;;;;;3.60;2.90;;;11.80;99.90;;;;;;5034391;28;20109;-81
2023/02/18 00:31:20;;;;;;;4.32;2.50;;;11.80;99.90;;;;;;5035849;28;20050;-81
2023/02/18 00:33:47;;;;;;;4.38;2.65;;;11.80;99.90;;;;;;5038291;28;20045;-81
2023/02/18 00:36:16;;;;;;;3.90;2.78;;;11.80;99.90;;;;;;5031561;28;20077;-81
2023/02/18 00:38:49;;;;;;;3.33;2.80;;;11.80;99.90;;;;;;5030948;28;20141;-80
2023/02/18 00:41:16;;;;;;;4.75;2.60;;;11.80;99.90;;;;;;5030216;28;20050;-81
2023/02/18 00:43:43;;;;;;;4.07;2.60;;;11.80;99.90;;;;;;5035578;28;20054;-81
2023/02/18 00:46:10;;;;;;;3.35;2.28;;;11.80;99.90;;;;;;5039829;28;20134;-80
2023/02/18 00:48:37;;;;;;;5.03;2.70;;;11.80;99.90;;;;;;5032165;28;20037;-81
2023/02/18 00:51:05;;;;;;;2.85;2.13;;;11.80;99.90;;;;;;5019529;28;20056;-81
2023/02/18 00:53:33;;;;;;;3.80;2.42;;;11.80;99.90;;;;;;5024937;28;20109;-81
2023/02/18 00:56:00;;;;;;;2.95;2.47;;;11.80;99.90;;;;;;5043497;28;20092;-80
2023/02/18 00:58:27;;;;;;;3.03;2.28;;;11.80;99.90;;;;;;5030506;28;20056;-80
2023/02/18 01:00:54;;;;;;;3.15;2.35;;;11.90;99.90;;;;;;5032658;28;20057;-81
2023/02/18 01:03:22;;;;;;;2.20;1.90;;;11.90;99.90;;;;;;5032443;28;20046;-81
2023/02/18 01:05:49;;;;;;;2.15;1.80;;;11.80;99.90;;;;;;5028348;28;20050;-81
2023/02/18 01:08:18;;;;;;;2.80;2.03;;;11.90;99.90;;;;;;5029132;28;20046;-81
2023/02/18 01:10:46;;;;;;;3.53;2.10;;;11.90;99.90;;;;;;5030528;28;20065;-81
2023/02/18 01:13:14;;;;;;;2.85;1.70;;;11.90;99.90;;;;;;5049568;28;20042;-81
2023/02/18 01:15:42;;;;;;;3.05;2.03;;;11.80;99.90;;;;;;5040671;28;20108;-80
2023/02/18 01:18:09;;;;;;;2.22;1.90;;;11.80;99.90;;;;;;5023581;28;20052;-81
2023/02/18 01:20:38;;;;;;;2.20;1.50;;;11.80;99.90;;;;;;5036461;28;20056;-80
2023/02/18 01:23:05;;;;;;;1.77;1.60;;;11.80;99.90;;;;;;5021976;28;20079;-81
2023/02/18 01:25:33;;;;;;;3.03;1.98;;;11.90;99.90;;;;;;5024935;28;20049;-81
2023/02/18 01:27:59;;;;;;;2.72;1.30;;;11.90;99.90;;;;;;5029526;28;20050;-81
2023/02/18 01:30:26;;;;;;;1.70;1.50;;;11.90;99.90;;;;;;5038027;28;20516;-80
2023/02/18 01:32:55;;;;;;;3.40;1.40;;;11.90;99.90;;;;;;5024038;28;20049;-81
2023/02/18 01:35:22;;;;;;;3.20;1.50;;;11.90;99.90;;;;;;5024984;28;20037;-80
2023/02/18 01:37:50;;;;;;;1.40;1.30;;;11.90;99.90;;;;;;5031054;28;20073;-81
2023/02/18 01:40:20;;;;;;;2.15;1.33;;;11.90;99.90;;;;;;5038226;28;20048;-81
2023/02/18 01:42:47;;;;;;;2.17;1.40;;;11.90;99.90;;;;;;5027202;28;20069;-81
2023/02/18 01:45:32;;;;;;;3.08;1.50;;;11.90;99.90;;;;;;5038484;28;20042;-80
2023/02/18 01:48:10;;;;;;;1.83;1.40;;;11.90;99.90;;;;;;5016976;28;20757;-80
2023/02/18 01:50:43;;;;;;;2.58;1.48;;;11.90;99.90;;;;;;5020977;28;20129;-81
2023/02/18 01:53:15;;;;;;;2.30;1.40;;;11.90;99.90;;;;;;5026407;28;20050;-79
2023/02/18 01:55:42;;;;;;;3.55;1.63;;;11.90;99.90;;;;;;5025077;28;20496;-81
2023/02/18 01:58:11;;;;;;;1.70;1.10;;;11.90;99.90;;;;;;5024906;28;20132;-81
2023/02/18 02:00:38;;;;;;;1.45;1.25;;;11.90;99.90;;;;;;5019924;28;20558;-81
2023/02/18 02:03:05;;;;;;;1.75;1.30;;;11.90;99.90;;;;;;5039776;28;20070;-81
2023/02/18 02:05:33;;;;;;;3.42;1.48;;;11.90;99.90;;;;;;5030857;28;20049;-81
2023/02/18 02:08:01;;;;;;;2.92;1.70;;;11.90;99.90;;;;;;5028851;28;20060;-81
2023/02/18 02:11:19;;;;;;;1.95;1.50;;;11.90;99.90;;;;;;5027105;28;20041;-80
2023/02/18 02:14:01;;;;;;;2.40;1.20;;;11.90;99.90;;;;;;5028376;28;20050;-81
2023/02/18 02:16:39;;;;;;;1.85;1.35;;;11.90;99.90;;;;;;5014372;28;20046;-81
2023/02/18 02:19:24;;;;;;;2.20;1.75;;;11.90;99.90;;;;;;5012887;28;20057;-80
2023/02/18 02:22:07;;;;;;;2.03;1.20;;;11.90;99.90;;;;;;5017700;28;20045;-81
2023/02/18 02:25:02;;;;;;;1.70;1.13;;;11.90;99.90;;;;;;5023624;28;20083;-81
2023/02/18 02:27:44;;;;;;;1.55;1.35;;;11.90;99.90;;;;;;5031523;28;20140;-81
2023/02/18 02:30:31;;;;;;;2.08;1.40;;;11.90;99.90;;;;;;5022593;28;20043;-81
2023/02/18 02:33:28;;;;;;;1.33;1.13;;;11.90;99.90;;;;;;5026314;28;20453;-80
2023/02/18 02:36:37;;;;;;;2.67;1.60;;;11.90;99.90;;;;;;5033851;28;20607;-81
2023/02/18 02:39:15;;;;;;;3.15;1.33;;;11.90;99.90;;;;;;5026291;28;20052;-81
2023/02/18 02:41:45;;;;;;;1.20;1.10;;;11.90;99.90;;;;;;5023559;28;20052;-81
2023/02/18 02:44:20;;;;;;;1.45;1.15;;;11.90;99.90;;;;;;5010422;28;20053;-81
2023/02/18 02:46:51;;;;;;;2.38;1.27;;;11.90;99.90;;;;;;5017996;28;20122;-80
2023/02/18 02:49:52;;;;;;;2.92;1.60;;;11.90;99.90;;;;;;5038799;28;20124;-81
2023/02/18 02:52:25;;;;;;;1.83;1.50;;;11.90;99.90;;;;;;4975783;28;20049;-81
2023/02/18 02:54:52;;;;;;;2.28;1.10;;;11.90;99.90;;;;;;5029929;28;20050;-80
2023/02/18 02:57:18;;;;;;;1.73;1.42;;;11.90;99.90;;;;;;5022675;28;20046;-81
2023/02/18 02:59:51;;;;;;;1.75;1.00;;;11.90;99.90;;;;;;5028176;28;20056;-80
2023/02/18 03:02:46;;;;;;;1.27;1.00;;;11.90;99.90;;;;;;5032314;28;20044;-81
2023/02/18 03:05:25;;;;;;;1.10;0.90;;;11.90;99.90;;;;;;5031795;28;20054;-81
2023/02/18 03:08:07;;;;;;;2.33;1.30;;;11.90;99.90;;;;;;5020378;28;20045;-80
2023/02/18 03:11:16;;;;;;;1.52;1.20;;;11.90;99.90;;;;;;5023446;28;20042;-81
2023/02/18 03:14:14;;;;;;;2.03;1.10;;;11.90;99.90;;;;;;5010467;28;20056;-81
2023/02/18 03:17:01;;;;;;;4.70;1.75;;;11.90;99.90;;;;;;5023081;28;20049;-81
2023/02/18 03:19:39;;;;;;;1.88;1.20;;;11.90;99.90;;;;;;5025586;28;20088;-80
2023/02/18 03:22:17;;;;;;;1.40;1.10;;;11.90;99.90;;;;;;5028449;28;20064;-81
2023/02/18 03:24:49;;;;;;;1.60;1.05;;;11.90;99.90;;;;;;5033062;28;20582;-80
2023/02/18 03:27:33;;;;;;;2.65;0.98;;;11.90;99.90;;;;;;5022167;28;20102;-80
2023/02/18 03:30:16;;;;;;;1.65;1.05;;;11.90;99.90;;;;;;5029280;28;20054;-81
2023/02/18 03:32:44;;;;;;;2.22;1.13;;;11.90;99.90;;;;;;5025413;28;20076;-81
2023/02/18 03:35:14;;;;;;;1.30;1.00;;;11.90;99.90;;;;;;5020622;28;20390;-81
2023/02/18 03:37:48;;;;;;;2.17;1.50;;;11.90;99.90;;;;;;5033424;28;20060;-80
2023/02/18 03:40:16;;;;;;;1.20;1.00;;;11.90;99.90;;;;;;5015406;28;20045;-81
2023/02/18 03:42:43;;;;;;;1.10;1.00;;;11.90;99.90;;;;;;5019982;28;20057;-80
2023/02/18 03:45:10;;;;;;;2.10;1.00;;;11.90;99.90;;;;;;5021903;28;20050;-81
2023/02/18 03:47:37;;;;;;;1.55;1.10;;;11.90;99.90;;;;;;5027261;28;20485;-81
2023/02/18 03:50:04;;;;;;;1.63;1.15;;;11.90;99.90;;;;;;5025560;28;20149;-81
2023/02/18 03:52:31;;;;;;;1.40;1.05;;;11.90;99.90;;;;;;5022146;28;20402;-81
2023/02/18 03:54:57;;;;;;;1.52;1.00;;;11.90;99.90;;;;;;5016160;28;20046;-81
2023/02/18 03:57:24;;;;;;;1.17;1.00;;;11.90;99.90;;;;;;5031000;28;20112;-81
2023/02/18 03:59:51;;;;;;;1.25;0.95;;;11.90;99.90;;;;;;5030669;28;20069;-81
2023/02/18 04:02:17;;;;;;;1.30;0.98;;;11.90;99.90;;;;;;5022200;28;20046;-81
2023/02/18 04:04:44;;;;;;;1.50;0.93;;;11.90;99.90;;;;;;5027708;28;20049;-81
2023/02/18 04:07:10;;;;;;;1.77;1.00;;;11.90;99.90;;;;;;5019734;28;20416;-81
2023/02/18 04:09:37;;;;;;;1.15;0.95;;;11.90;99.90;;;;;;5018609;28;20041;-81
2023/02/18 04:12:04;;;;;;;1.45;1.15;;;11.90;99.90;;;;;;5019499;28;20547;-82
2023/02/18 04:14:31;;;;;;;1.85;0.90;;;11.90;99.90;;;;;;5022415;28;20087;-81
2023/02/18 04:16:57;;;;;;;0.82;0.82;;;11.90;99.90;;;;;;5025935;28;20056;-81
2023/02/18 04:19:24;;;;;;;1.55;1.10;;;11.90;99.90;;;;;;5025350;28;20050;-81
2023/02/18 04:21:51;;;;;;;1.10;0.80;;;11.90;99.90;;;;;;5015467;28;20137;-81
2023/02/18 04:24:17;;;;;;;1.02;0.73;;;11.90;99.90;;;;;;5016382;28;20421;-81
2023/02/18 04:26:44;;;;;;;1.75;0.80;;;11.90;99.90;;;;;;5019421;28;20133;-81
2023/02/18 04:29:11;;;;;;;1.35;0.80;;;11.90;99.90;;;;;;5021625;28;20044;-81
2023/02/18 04:31:38;;;;;;;1.25;0.90;;;11.90;99.90;;;;;;5024785;28;20501;-80
2023/02/18 04:34:05;;;;;;;1.95;0.80;;;11.90;99.90;;;;;;5030948;28;20113;-81
2023/02/18 04:36:31;;;;;;;1.02;0.85;;;11.90;99.90;;;;;;5010432;28;20056;-81
2023/02/18 04:38:58;;;;;;;1.77;1.00;;;11.90;99.90;;;;;;5012552;28;20049;-80
2023/02/18 04:41:25;;;;;;;1.58;0.80;;;11.90;99.90;;;;;;5019627;28;20060;-81
2023/02/18 04:43:52;;;;;;;1.00;0.95;;;11.90;99.90;;;;;;5024782;28;20205;-81
2023/02/18 04:46:18;;;;;;;1.75;0.88;;;11.80;99.90;;;;;;5024110;28;20049;-80
2023/02/18 04:48:45;;;;;;;0.75;0.70;;;11.90;99.90;;;;;;5030358;28;20050;-81
2023/02/18 04:51:12;;;;;;;1.35;0.90;;;11.90;99.90;;;;;;5017692;28;20129;-81
2023/02/18 04:53:38;;;;;;;1.77;0.70;;;11.80;99.90;;;;;;5027017;28;20056;-82
2023/02/18 04:56:05;;;;;;;2.13;0.82;;;11.80;99.90;;;;;;5024776;28;20050;-80
2023/02/18 04:58:32;;;;;;;1.02;0.93;;;11.80;99.90;;;;;;5025539;28;20412;-80
2023/02/18 05:01:00;;;;;;;1.50;0.80;;;11.80;99.90;;;;;;5026760;28;20052;-81
2023/02/18 05:03:28;;;;;;;1.20;0.98;;;11.80;99.90;;;;;;5022567;28;20140;-81
2023/02/18 05:05:54;;;;;;;2.83;1.05;;;11.80;99.90;;;;;;5016652;28;20050;-81
2023/02/18 05:08:21;;;;;;;1.00;0.80;;;11.80;99.90;;;;;;5022183;28;20124;-80
2023/02/18 05:10:48;;;;;;;2.15;0.85;;;11.80;99.90;;;;;;5022762;28;20049;-81
2023/02/18 05:13:15;;;;;;;2.10;0.70;;;11.80;99.90;;;;;;5021783;28;20042;-81
2023/02/18 05:15:42;;;;;;;0.90;0.85;;;11.80;99.90;;;;;;5028240;28;20076;-81
2023/02/18 05:18:09;;;;;;;1.52;0.80;;;11.80;99.90;;;;;;5018214;28;20556;-81
2023/02/18 05:20:35;;;;;;;2.85;0.85;;;11.80;99.90;;;;;;5017109;28;20139;-81
2023/02/18 05:23:02;;;;;;;0.90;0.73;;;11.80;99.90;;;;;;5015655;28;20053;-79
2023/02/18 05:25:28;;;;;;;1.40;0.80;;;11.80;99.90;;;;;;5023011;28;20049;-80
2023/02/18 05:27:55;;;;;;;1.38;0.88;;;11.80;99.90;;;;;;5025244;28;20056;-81
2023/02/18 05:30:22;;;;;;;2.53;1.00;;;11.80;99.90;;;;;;5027089;28;20045;-80
2023/02/18 05:32:48;;;;;;;1.65;0.68;;;11.80;99.90;;;;;;5012899;28;20049;-80
2023/02/18 05:35:15;;;;;;;2.75;1.25;;;11.80;99.90;;;;;;5015931;28;20424;-80
2023/02/18 05:37:42;;;;;;;0.60;0.60;;;11.80;99.90;;;;;;5016052;28;20144;-81
2023/02/18 05:40:10;;;;;;;1.33;0.65;;;11.80;99.90;;;;;;5022088;28;20045;-81
2023/02/18 05:42:37;;;;;;;1.02;0.70;;;11.80;99.90;;;;;;5026732;28;20067;-81
2023/02/18 05:45:04;;;;;;;0.80;0.70;;;11.80;99.90;;;;;;5027055;28;20050;-80
2023/02/18 05:47:31;;;;;;;1.50;0.80;;;11.80;99.90;;;;;;5009044;28;20049;-81
2023/02/18 05:49:57;;;;;;;1.73;0.70;;;11.80;99.90;;;;;;5019432;28;20049;-81
2023/02/18 05:52:24;;;;;;;0.75;0.75;;;11.80;99.90;;;;;;5031604;28;20041;-81
2023/02/18 05:54:51;;;;;;;2.85;0.70;;;11.80;99.90;;;;;;5034849;28;20059;-81
2023/02/18 05:57:17;;;;;;;0.60;0.60;;;11.80;99.90;;;;;;5036164;28;20046;-81
2023/02/18 05:59:44;;;;;;;2.50;0.60;;;11.80;99.90;;;;;;5033464;28;20061;-81
2023/02/18 06:02:10;;;;;;;1.05;0.68;;;11.80;99.90;;;;;;5026529;28;20057;-81
2023/02/18 06:04:38;;;;;;;0.63;0.50;;;11.90;99.90;;;;;;5030085;28;20057;-81
2023/02/18 06:07:05;;;;;;;1.45;0.77;;;11.80;99.90;;;;;;5032335;28;20069;-81
2023/02/18 06:09:31;;;;;;;0.68;0.65;;;11.80;99.90;;;;;;5036096;28;20105;-81
2023/02/18 06:11:58;;;;;;;0.82;0.50;;;11.80;99.90;;;;;;5037029;28;20065;-81
2023/02/18 06:14:25;;;;;;;0.70;0.70;;;11.90;99.90;;;;;;5029714;28;20046;-81
2023/02/18 06:16:52;;;;;;;0.93;0.65;;;11.90;99.90;;;;;;5030539;28;20052;-80
2023/02/18 06:19:18;;;;;;;1.52;0.70;;;11.90;99.90;;;;;;5027132;28;20049;-81
2023/02/18 06:21:45;;;;;;;0.65;0.65;;;11.90;99.90;;;;;;5026214;28;20052;-81
2023/02/18 06:24:12;;;;;;;1.15;0.90;;;11.90;99.90;;;;;;5028944;28;20038;-81
2023/02/18 06:26:38;;;;;;;2.38;0.70;;;11.90;99.90;;;;;;5036522;28;20060;-80
2023/02/18 06:29:05;;;;;;;0.73;0.70;;;11.90;99.90;;;;;;5019498;28;20048;-80
2023/02/18 06:31:32;;;;;;;1.75;1.20;;;11.90;99.90;;;;;;5019625;28;20505;-80
2023/02/18 06:33:58;;;;;;;1.20;0.70;;;11.90;99.90;;;;;;5020417;28;20049;-80
2023/02/18 06:36:25;;;;;;;1.08;0.70;;;11.90;99.90;;;;;;5030259;28;20064;-80
2023/02/18 06:38:53;;;;;;;1.20;0.70;;;12.00;99.90;;;;;;5028298;28;20060;-80
2023/02/18 06:41:20;;;;;;;2.30;0.63;;;11.90;99.90;;;;;;5026620;28;20042;-80
2023/02/18 06:43:46;;;;;;;1.38;0.80;;;11.90;99.90;;;;;;5019629;28;20128;-80
2023/02/18 06:46:13;;;;;;;0.50;0.50;;;11.90;99.90;;;;;;5023404;28;20050;-80
2023/02/18 06:48:40;;;;;;;0.57;0.50;;;11.90;99.90;;;;;;5032746;28;20046;-81
2023/02/18 06:51:07;;;;;;;1.15;0.70;;;11.90;99.90;;;;;;5036947;28;20064;-80
2023/02/18 06:53:33;;;;;;;0.50;0.50;;;11.90;99.90;;;;;;5042312;28;20044;-80
2023/02/18 06:56:00;;;;;;;0.70;0.70;;;12.00;99.90;;;;;;5033126;28;20056;-81
2023/02/18 06:58:27;;;;;;;0.70;0.60;;;12.00;99.90;;;;;;5025365;28;20045;-80
2023/02/18 07:00:53;;;;;;;2.92;0.60;;;12.00;99.90;;;;;;5027925;28;20050;-80
2023/02/18 07:03:20;;;;;;;1.40;0.50;;;12.00;99.90;;;;;;5035143;28;20124;-81
2023/02/18 07:05:47;;;;;;;1.20;0.50;;;12.00;99.90;;;;;;5037715;28;20060;-81
2023/02/18 07:08:13;;;;;;;1.75;0.60;;;12.00;99.90;;;;;;5040445;28;20052;-81
2023/02/18 07:10:40;;;;;;;0.47;0.47;;;12.00;99.90;;;;;;5038949;28;20045;-80
2023/02/18 07:13:07;;;;;;;0.75;0.50;;;12.00;99.90;;;;;;5026235;28;20509;-81
2023/02/18 07:15:33;;;;;;;0.88;0.60;;;12.00;99.90;;;;;;5031259;28;20046;-81
2023/02/18 07:18:00;;;;;;;1.10;0.55;;;12.10;99.90;;;;;;5032621;28;20063;-81
2023/02/18 07:20:27;;;;;;;1.05;0.50;;;12.10;99.90;;;;;;5037660;28;20077;-80
2023/02/18 07:22:54;;;;;;;3.05;1.85;;;12.10;99.90;;;;;;5035548;28;20053;-80
2023/02/18 07:25:21;;;;;;;0.70;0.40;;;12.10;99.90;;;;;;5027310;28;20049;-81
2023/02/18 07:27:49;;;;;;;2.83;0.90;;;12.10;99.90;;;;;;5024635;28;20461;-81
2023/02/18 07:30:16;;;;;;;4.72;2.22;;;12.10;99.90;;;;;;5029386;28;20066;-81
2023/02/18 07:32:43;;;;;;;3.15;0.98;;;12.10;99.90;;;;;;5034624;28;20125;-80
2023/02/18 07:35:13;;;;;;;4.38;0.60;;;12.20;99.90;;;;;;5036703;28;20037;-80
2023/02/18 07:37:46;;;;;;;1.05;0.60;;;12.20;99.90;;;;;;5037203;28;20113;-82
2023/02/18 07:40:16;;;;;;;1.90;0.70;;;12.20;99.90;;;;;;5019980;28;20089;-81
2023/02/18 07:42:42;;;;;;;3.73;0.70;;;12.20;99.90;;;;;;5027813;28;20532;-81
2023/02/18 07:45:10;;;;;;;2.67;1.10;;;12.20;99.90;;;;;;5030056;28;20078;-82
2023/02/18 07:47:37;;;;;;;1.38;0.50;;;12.30;99.90;;;;;;5038545;28;20085;-82
2023/02/18 07:50:05;;;;;;;0.65;0.60;;;12.30;99.90;;;;;;5035280;28;20508;-82
2023/02/18 07:52:32;;;;;;;1.50;1.17;;;12.30;99.90;;;;;;5029013;28;20113;-82
2023/02/18 07:54:59;;;;;;;1.00;0.85;;;12.40;99.90;;;;;;5026201;28;20464;-81
2023/02/18 07:57:25;;;;;;;2.90;0.45;;;12.40;99.90;;;;;;5031112;28;20128;-82
2023/02/18 07:59:52;;;;;;;0.60;0.40;;;12.40;99.90;;;;;;5033040;28;20053;-81
2023/02/18 08:02:21;;;;;;;2.75;0.57;;;12.40;99.90;;;;;;5039657;28;20045;-82
2023/02/18 08:04:48;;;;;;;1.40;0.70;;;12.50;99.90;;;;;;5043149;28;20054;-82
2023/02/18 08:07:17;;;;;;;0.93;0.60;;;12.50;99.90;;;;;;5032596;28;20050;-81
2023/02/18 08:09:44;;;;;;;1.25;0.75;;;12.50;99.90;;;;;;5029493;28;20056;-81
2023/02/18 08:12:10;;;;;;;1.77;0.70;;;12.50;99.90;;;;;;5022059;28;20053;-82
2023/02/18 08:14:37;;;;;;;1.05;0.63;;;12.50;99.90;;;;;;5027460;28;20421;-81
2023/02/18 08:17:04;;;;;;;2.65;0.55;;;12.50;99.90;;;;;;5029206;28;20050;-81
2023/02/18 08:19:30;;;;;;;1.02;0.57;;;12.50;99.90;;;;;;5036717;28;20083;-81
2023/02/18 08:22:01;;;;;;;6.88;0.88;;;12.50;99.90;;;;;;5018587;28;20449;-80
2023/02/18 08:24:28;;;;;;;1.05;0.68;;;12.60;99.90;;;;;;5023613;28;20061;-80
2023/02/18 08:26:54;;;;;;;2.80;0.70;;;12.60;99.90;;;;;;5022365;28;20053;-81
2023/02/18 08:29:27;;;;;;;1.48;0.73;;;12.60;99.90;;;;;;5025585;28;20041;-82
2023/02/18 08:31:56;;;;;;;2.63;1.02;;;12.60;99.90;;;;;;5027001;28;20090;-82
2023/02/18 08:34:22;;;;;;;1.85;1.15;;;12.60;99.90;;;;;;5021773;28;20043;-82
2023/02/18 08:36:49;;;;;;;2.92;0.73;;;12.60;99.90;;;;;;5020610;28;20056;-80
2023/02/18 08:39:16;;;;;;;1.15;0.70;;;12.70;99.90;;;;;;5025297;28;20057;-82
2023/02/18 08:41:42;;;;;;;2.17;0.77;;;12.70;99.90;;;;;;5024650;28;20513;-82
2023/02/18 08:44:09;;;;;;;1.00;0.75;;;12.70;99.90;;;;;;5032876;28;20109;-81
2023/02/18 08:46:36;;;;;;;1.38;1.00;;;12.70;99.90;;;;;;5037683;28;20045;-81
2023/02/18 08:49:03;;;;;;;1.58;1.27;;;12.60;99.90;;;;;;5029883;28;20046;-80
2023/02/18 08:51:30;;;;;;;2.05;1.17;;;12.70;99.90;;;;;;5019314;28;20051;-82
2023/02/18 08:53:57;;;;;;;1.63;1.25;;;12.70;99.90;;;;;;5025601;28;20072;-81
2023/02/18 08:56:24;;;;;;;1.50;1.00;;;12.70;99.90;;;;;;5031074;28;20064;-82
2023/02/18 08:58:50;;;;;;;2.05;0.95;;;12.70;99.90;;;;;;5033440;28;20055;-82
2023/02/18 09:01:17;;;;;;;3.22;1.38;;;12.70;99.90;;;;;;5028527;28;20141;-81
2023/02/18 09:03:44;;;;;;;1.50;0.90;;;12.70;99.90;;;;;;5019477;28;20069;-81
2023/02/18 09:06:11;;;;;;;1.13;0.73;;;12.70;99.90;;;;;;5018613;28;20447;-81
2023/02/18 09:08:37;;;;;;;2.08;0.88;;;12.80;99.90;;;;;;5015621;28;20092;-81
2023/02/18 09:11:04;;;;;;;1.15;0.80;;;12.80;99.90;;;;;;5022676;28;20060;-80
2023/02/18 09:13:32;;;;;;;3.90;1.05;;;12.80;99.90;;;;;;5028258;28;20128;-81
2023/02/18 09:16:02;;;;;;;1.33;0.85;;;12.80;99.90;;;;;;5012855;28;20103;-81
2023/02/18 09:18:29;;;;;;;0.82;0.70;;;12.80;99.90;;;;;;5030054;28;20042;-80
2023/02/18 09:20:58;;;;;;;1.55;1.08;;;12.80;99.90;;;;;;5017962;28;20061;-80
2023/02/18 09:23:27;;;;;;;0.70;0.60;;;12.80;99.90;;;;;;5029180;28;20052;-80
2023/02/18 09:25:55;;;;;;;1.58;1.00;;;12.80;99.90;;;;;;5020008;28;20076;-81
2023/02/18 09:28:22;;;;;;;1.85;0.95;;;12.90;99.90;;;;;;5029954;28;20044;-80
2023/02/18 09:30:49;;;;;;;0.75;0.70;;;12.90;99.90;;;;;;5026317;28;20052;-80
2023/02/18 09:33:17;;;;;;;0.85;0.60;;;12.90;99.90;;;;;;5015518;28;20042;-83
2023/02/18 09:35:45;;;;;;;1.20;0.82;;;13.00;99.90;;;;;;5019403;28;20501;-84
2023/02/18 09:38:14;;;;;;;2.15;0.73;;;13.00;99.90;;;;;;5015068;28;20129;-84
2023/02/18 09:40:45;;;;;;;3.38;0.90;;;13.00;99.90;;;;;;5023084;28;20056;-81
2023/02/18 09:43:29;;;;;;;4.30;1.33;;;13.00;99.90;;;;;;5012803;28;20045;-81
2023/02/18 09:45:58;;;;;;;1.48;0.80;;;13.00;99.90;;;;;;5012292;28;20052;-80
2023/02/18 09:48:31;;;;;;;1.23;1.13;;;13.10;99.90;;;;;;5015527;28;20141;-82
2023/02/18 09:50:58;;;;;;;5.45;1.25;;;13.10;99.90;;;;;;5015677;28;20046;-84
2023/02/18 09:53:25;;;;;;;0.63;0.63;;;13.10;99.90;;;;;;5026419;28;20132;-83
2023/02/18 09:55:55;;;;;;;2.70;0.98;;;13.20;99.90;;;;;;5029008;28;20133;-83
2023/02/18 09:58:33;;;;;;;1.13;0.90;;;13.10;99.90;;;;;;5013630;28;20046;-80
2023/02/18 10:01:13;;;;;;;0.98;0.60;;;13.10;99.90;;;;;;5009434;28;20069;-82
2023/02/18 10:03:42;;;;;;;1.25;0.60;;;13.10;99.90;;;;;;5012535;28;20062;-82
2023/02/18 10:06:16;;;;;;;1.70;1.20;;;13.10;99.90;;;;;;5023450;28;20132;-82
2023/02/18 10:08:49;;;;;;;1.92;0.90;;;13.20;99.90;;;;;;5021010;28;20073;-82
2023/02/18 10:11:29;;;;;;;1.05;0.70;;;13.20;99.90;;;;;;5019898;28;20520;-82
2023/02/18 10:13:57;;;;;;;2.78;0.68;;;13.20;99.90;;;;;;5011699;28;20405;-85
2023/02/18 10:16:24;;;;;;;2.10;0.63;;;13.30;99.90;;;;;;5029467;28;20551;-82
2023/02/18 10:18:55;;;;;;;1.42;0.80;;;13.30;99.90;;;;;;5018551;28;20112;-81
2023/02/18 10:21:30;;;;;;;1.80;1.05;;;13.20;99.90;;;;;;5016103;28;20160;-81
2023/02/18 10:24:01;;;;;;;2.47;0.90;;;13.20;99.90;;;;;;5023299;28;20052;-82
2023/02/18 10:26:30;;;;;;;2.65;1.00;;;13.20;99.90;;;;;;5031731;28;20129;-79
2023/02/18 10:28:58;;;;;;;0.90;0.70;;;13.20;99.90;;;;;;5020986;28;20056;-81
2023/02/18 10:31:30;;;;;;;2.20;0.98;;;13.20;99.90;;;;;;5024247;28;20132;-81
2023/02/18 10:34:05;;;;;;;2.47;1.00;;;13.30;99.90;;;;;;5028591;28;20042;-81
2023/02/18 10:36:31;;;;;;;1.17;0.80;;;13.30;99.90;;;;;;5025062;28;20053;-82
2023/02/18 10:39:13;;;;;;;2.22;0.77;;;13.30;99.90;;;;;;5029717;28;20049;-80
2023/02/18 10:41:59;;;;;;;2.58;0.70;;;13.40;99.90;;;;;;5023243;28;20050;-81
2023/02/18 10:44:43;;;;;;;2.00;0.98;;;13.50;99.90;;;;;;5015761;28;20054;-82
2023/02/18 10:47:34;;;;;;;1.92;1.20;;;13.50;99.90;;;;;;5030601;28;20077;-81
2023/02/18 10:50:16;;;;;;;1.00;0.90;;;13.60;99.90;;;;;;5044459;28;20073;-81
2023/02/18 10:52:46;;;;;;;2.08;1.13;;;13.70;99.90;;;;;;5014488;28;20049;-80
2023/02/18 10:55:17;;;;;;;0.90;0.80;;;13.80;99.90;;;;;;5012736;28;20104;-80
2023/02/18 10:57:46;;;;;;;1.52;0.80;;;13.90;99.90;;;;;;5010935;28;20065;-79
2023/02/18 11:00:25;;;;;;;1.63;0.60;;;14.00;99.90;;;;;;5012885;28;20065;-80
2023/02/18 11:03:08;;;;;;;1.55;0.63;;;14.10;99.90;;;;;;5011945;28;20042;-80
2023/02/18 11:05:36;;;;;;;2.30;0.68;;;14.20;99.90;;;;;;5024389;28;20133;-80
2023/02/18 11:08:08;;;;;;;3.28;0.70;;;14.20;99.90;;;;;;5026176;28;20532;-87
2023/02/18 11:10:39;;;;;;;1.02;0.80;;;14.30;99.90;;;;;;5007709;28;20050;-81
2023/02/18 11:13:08;;;;;;;0.98;0.80;;;14.40;99.90;;;;;;5013637;28;20042;-81
2023/02/18 11:15:35;;;;;;;2.47;0.90;;;14.40;99.90;;;;;;5010159;28;20037;-82
2023/02/18 11:18:39;;;;;;;1.05;0.63;;;14.40;99.90;;;;;;5010362;28;20066;-80
2023/02/18 11:21:35;;;;;;;0.93;0.70;;;14.40;99.90;;;;;;5005652;28;20042;-80
2023/02/18 11:24:20;;;;;;;2.10;0.70;;;14.40;99.90;;;;;;5005222;28;20134;-81
2023/02/18 11:26:47;;;;;;;1.48;0.90;;;14.50;99.90;;;;;;5015311;28;20045;-81
2023/02/18 11:29:21;;;;;;;1.60;0.90;;;14.40;99.90;;;;;;5022456;28;20049;-83
2023/02/18 11:31:55;;;;;;;1.50;0.70;;;14.40;99.90;;;;;;5019576;28;20056;-81
2023/02/18 11:34:28;;;;;;;4.10;1.10;;;14.40;99.90;;;;;;5033405;28;20092;-82
2023/02/18 11:37:06;;;;;;;61.15;3.40;;;14.40;99.90;;;;;;5022538;28;20045;-81
2023/02/18 11:39:33;;;;;;;1.50;0.93;;;14.40;99.90;;;;;;5020137;28;20050;-81
2023/02/18 11:42:06;;;;;;;3.67;1.02;;;14.40;99.90;;;;;;5017534;28;20046;-80
2023/02/18 11:44:40;;;;;;;5.65;1.23;;;14.40;99.90;;;;;;5025361;28;20492;-81
2023/02/18 11:47:13;;;;;;;1.42;0.80;;;14.40;99.90;;;;;;5021756;28;20058;-79
2023/02/18 11:49:57;;;;;;;1.45;0.70;;;14.40;99.90;;;;;;5023379;28;20121;-82
2023/02/18 11:52:26;;;;;;;2.58;0.82;;;14.50;99.90;;;;;;5014635;28;20042;-81
2023/02/18 11:55:12;;;;;;;1.63;0.90;;;14.50;99.90;;;;;;5015610;28;20488;-80
2023/02/18 11:57:44;;;;;;;1.05;0.73;;;14.60;99.90;;;;;;5019897;28;20306;-80
2023/02/18 12:00:20;;;;;;;0.47;0.47;;;14.50;99.90;;;;;;5031973;28;20300;-82
2023/02/18 12:02:48;;;;;;;2.55;0.80;;;14.60;99.90;;;;;;5014768;28;20056;-80
2023/02/18 12:05:26;;;;;;;1.35;0.65;;;14.60;99.90;;;;;;5020868;28;20042;-81
2023/02/18 12:08:02;;;;;;;1.45;0.80;;;14.70;99.90;;;;;;5011026;28;20133;-82
2023/02/18 12:10:41;;;;;;;1.35;0.90;;;14.70;99.90;;;;;;5012046;28;20106;-81
2023/02/18 12:13:33;;;;;;;1.17;1.00;;;14.80;99.90;;;;;;5015169;28;20042;-81
2023/02/18 12:16:10;;;;;;;1.95;0.90;;;14.80;99.90;;;;;;5022656;28;20045;-82
2023/02/18 12:19:05;;;;;;;1.05;0.90;;;14.80;99.90;;;;;;5030244;28;20064;-81
2023/02/18 12:21:38;;;;;;;1.40;0.85;;;14.80;99.90;;;;;;5018394;28;20521;-80
2023/02/18 12:24:20;;;;;;;1.00;0.82;;;14.80;99.90;;;;;;5022691;28;20053;-81
2023/02/18 12:27:33;;;;;;;5.45;0.82;;;14.80;99.90;;;;;;5024376;28;20072;-82
2023/02/18 12:30:25;;;;;;;1.10;0.80;;;14.80;99.90;;;;;;4997786;28;20045;-82
2023/02/18 12:33:29;;;;;;;0.70;0.70;;;14.90;99.90;;;;;;5029797;28;20057;-80
2023/02/18 12:36:12;;;;;;;1.00;0.70;;;14.90;99.90;;;;;;5020403;28;20133;-81
2023/02/18 12:39:03;;;;;;;0.82;0.70;;;14.90;99.90;;;;;;5024498;28;20077;-81
2023/02/18 12:41:54;;;;;;;1.73;1.00;;;14.90;99.90;;;;;;5030573;28;20420;-81
2023/02/18 12:44:21;;;;;;;1.25;0.77;;;14.90;99.90;;;;;;5029760;28;20546;-80
2023/02/18 12:46:50;;;;;;;1.70;0.80;;;15.00;99.90;;;;;;5020228;28;20048;-81
2023/02/18 12:49:36;;;;;;;0.80;0.67;;;14.90;99.90;;;;;;5017553;28;20072;-82
2023/02/18 12:52:21;;;;;;;3.63;1.73;;;14.90;99.90;;;;;;5021612;28;20363;-82
2023/02/18 12:55:10;;;;;;;1.60;0.90;;;14.90;99.90;;;;;;5023030;28;20050;-83
2023/02/18 12:57:53;;;;;;;3.10;1.10;;;14.90;99.90;;;;;;5020248;28;20049;-82
2023/02/18 13:00:38;;;;;;;2.05;0.80;;;14.90;99.90;;;;;;5033407;28;20041;-83
2023/02/18 13:03:39;;;;;;;3.58;0.90;;;14.80;99.90;;;;;;5021926;28;20053;-82
2023/02/18 13:06:15;;;;;;;0.80;0.70;;;14.90;99.90;;;;;;5019837;28;20053;-82
2023/02/18 13:08:45;;;;;;;2.10;1.00;;;14.90;99.90;;;;;;5024801;28;20114;-82
2023/02/18 13:11:14;;;;;;;2.37;0.90;;;14.90;99.90;;;;;;5025036;28;20053;-81